sensor_id;sensor_type;location;lat;lon;timestamp;P1;durP1;ratioP1;P2;durP2;ratioP2
6626;SDS011;3349;49.830;8.748;2022-08-05T00:01:12;6.85;;;3.83;;
6626;SDS011;3349;49.830;8.748;2022-08-05T00:03:39;6.10;;;3.92;;
6626;SDS011;3349;49.830;8.748;2022-08-05T00:06:08;7.07;;;4.30;;
6626;SDS011;3349;49.830;8.748;2022-08-05T00:08:35;8.65;;;4.45;;
6626;SDS011;3349;49.830;8.748;2022-08-05T00:11:03;8.27;;;4.22;;
6626;SDS011;3349;49.830;8.748;2022-08-05T00:13:31;7.05;;;3.83;;
6626;SDS011;3349;49.830;8.748;2022-08-05T00:15:59;5.57;;;3.90;;
6626;SDS011;3349;49.830;8.748;2022-08-05T00:18:26;5.60;;;3.38;;
6626;SDS011;3349;49.830;8.748;2022-08-05T00:20:53;10.35;;;3.50;;
6626;SDS011;3349;49.830;8.748;2022-08-05T00:23:22;9.00;;;3.70;;
6626;SDS011;3349;49.830;8.748;2022-08-05T00:25:49;5.78;;;3.95;;
6626;SDS011;3349;49.830;8.748;2022-08-05T00:28:16;8.57;;;3.80;;
6626;SDS011;3349;49.830;8.748;2022-08-05T00:30:43;4.40;;;3.90;;
6626;SDS011;3349;49.830;8.748;2022-08-05T00:33:11;6.43;;;3.70;;
6626;SDS011;3349;49.830;8.748;2022-08-05T00:35:38;10.30;;;4.45;;
6626;SDS011;3349;49.830;8.748;2022-08-05T00:38:04;8.30;;;4.80;;
6626;SDS011;3349;49.830;8.748;2022-08-05T00:40:32;12.38;;;4.97;;
6626;SDS011;3349;49.830;8.748;2022-08-05T00:43:00;8.85;;;5.60;;
6626;SDS011;3349;49.830;8.748;2022-08-05T00:45:28;9.65;;;5.85;;
6626;SDS011;3349;49.830;8.748;2022-08-05T00:47:55;10.55;;;5.80;;
6626;SDS011;3349;49.830;8.748;2022-08-05T00:50:22;9.75;;;5.72;;
6626;SDS011;3349;49.830;8.748;2022-08-05T00:52:49;10.57;;;5.72;;
6626;SDS011;3349;49.830;8.748;2022-08-05T00:55:15;7.88;;;6.43;;
6626;SDS011;3349;49.830;8.748;2022-08-05T00:57:43;15.68;;;6.13;;
6626;SDS011;3349;49.830;8.748;2022-08-05T01:00:11;9.98;;;6.10;;
6626;SDS011;3349;49.830;8.748;2022-08-05T01:02:38;9.50;;;5.95;;
6626;SDS011;3349;49.830;8.748;2022-08-05T01:05:05;11.18;;;6.70;;
6626;SDS011;3349;49.830;8.748;2022-08-05T01:07:32;7.85;;;6.00;;
6626;SDS011;3349;49.830;8.748;2022-08-05T01:09:59;8.68;;;6.25;;
6626;SDS011;3349;49.830;8.748;2022-08-05T01:16:19;9.43;;;6.00;;
6626;SDS011;3349;49.830;8.748;2022-08-05T01:18:50;11.77;;;5.90;;
6626;SDS011;3349;49.830;8.748;2022-08-05T01:21:27;9.20;;;5.15;;
6626;SDS011;3349;49.830;8.748;2022-08-05T01:24:20;9.65;;;5.30;;
6626;SDS011;3349;49.830;8.748;2022-08-05T01:27:00;9.02;;;4.65;;
6626;SDS011;3349;49.830;8.748;2022-08-05T01:29:35;7.45;;;4.82;;
6626;SDS011;3349;49.830;8.748;2022-08-05T01:32:06;9.30;;;4.72;;
6626;SDS011;3349;49.830;8.748;2022-08-05T01:34:35;8.27;;;4.70;;
6626;SDS011;3349;49.830;8.748;2022-08-05T01:37:07;9.25;;;5.40;;
6626;SDS011;3349;49.830;8.748;2022-08-05T01:39:41;8.98;;;4.97;;
6626;SDS011;3349;49.830;8.748;2022-08-05T01:42:13;10.52;;;5.30;;
6626;SDS011;3349;49.830;8.748;2022-08-05T01:44:46;9.90;;;4.63;;
6626;SDS011;3349;49.830;8.748;2022-08-05T01:47:14;5.53;;;4.50;;
6626;SDS011;3349;49.830;8.748;2022-08-05T01:49:44;7.32;;;4.88;;
6626;SDS011;3349;49.830;8.748;2022-08-05T01:52:14;5.70;;;4.85;;
6626;SDS011;3349;49.830;8.748;2022-08-05T01:54:44;7.00;;;4.63;;
6626;SDS011;3349;49.830;8.748;2022-08-05T01:57:15;6.97;;;5.10;;
6626;SDS011;3349;49.830;8.748;2022-08-05T01:59:47;9.63;;;5.25;;
6626;SDS011;3349;49.830;8.748;2022-08-05T02:02:16;7.18;;;4.97;;
6626;SDS011;3349;49.830;8.748;2022-08-05T02:04:46;7.75;;;4.72;;
6626;SDS011;3349;49.830;8.748;2022-08-05T02:07:14;7.53;;;4.75;;
6626;SDS011;3349;49.830;8.748;2022-08-05T02:09:42;5.50;;;4.40;;
6626;SDS011;3349;49.830;8.748;2022-08-05T02:12:11;7.45;;;4.93;;
6626;SDS011;3349;49.830;8.748;2022-08-05T02:14:48;7.88;;;4.78;;
6626;SDS011;3349;49.830;8.748;2022-08-05T02:17:24;6.03;;;4.82;;
6626;SDS011;3349;49.830;8.748;2022-08-05T02:19:57;7.78;;;5.10;;
6626;SDS011;3349;49.830;8.748;2022-08-05T02:22:29;5.72;;;4.70;;
6626;SDS011;3349;49.830;8.748;2022-08-05T02:25:00;10.82;;;4.88;;
6626;SDS011;3349;49.830;8.748;2022-08-05T02:27:30;8.88;;;5.70;;
6626;SDS011;3349;49.830;8.748;2022-08-05T02:30:02;9.38;;;5.05;;
6626;SDS011;3349;49.830;8.748;2022-08-05T02:32:30;6.45;;;5.22;;
6626;SDS011;3349;49.830;8.748;2022-08-05T02:35:02;8.40;;;5.10;;
6626;SDS011;3349;49.830;8.748;2022-08-05T02:37:30;6.80;;;4.68;;
6626;SDS011;3349;49.830;8.748;2022-08-05T02:39:59;6.90;;;4.88;;
6626;SDS011;3349;49.830;8.748;2022-08-05T02:42:27;7.68;;;4.85;;
6626;SDS011;3349;49.830;8.748;2022-08-05T02:44:55;7.07;;;5.20;;
6626;SDS011;3349;49.830;8.748;2022-08-05T02:47:25;11.82;;;5.43;;
6626;SDS011;3349;49.830;8.748;2022-08-05T02:49:54;7.57;;;5.10;;
6626;SDS011;3349;49.830;8.748;2022-08-05T02:52:21;7.82;;;5.28;;
6626;SDS011;3349;49.830;8.748;2022-08-05T02:54:49;9.68;;;6.13;;
6626;SDS011;3349;49.830;8.748;2022-08-05T02:57:18;12.80;;;5.72;;
6626;SDS011;3349;49.830;8.748;2022-08-05T02:59:47;8.98;;;5.70;;
6626;SDS011;3349;49.830;8.748;2022-08-05T03:02:16;18.00;;;7.03;;
6626;SDS011;3349;49.830;8.748;2022-08-05T03:04:46;9.52;;;6.05;;
6626;SDS011;3349;49.830;8.748;2022-08-05T03:07:16;9.88;;;6.43;;
6626;SDS011;3349;49.830;8.748;2022-08-05T03:09:44;7.68;;;6.35;;
6626;SDS011;3349;49.830;8.748;2022-08-05T03:14:55;8.27;;;6.03;;
6626;SDS011;3349;49.830;8.748;2022-08-05T03:17:22;7.28;;;6.25;;
6626;SDS011;3349;49.830;8.748;2022-08-05T03:19:50;10.75;;;7.15;;
6626;SDS011;3349;49.830;8.748;2022-08-05T03:22:17;8.18;;;6.65;;
6626;SDS011;3349;49.830;8.748;2022-08-05T03:24:44;9.85;;;6.63;;
6626;SDS011;3349;49.830;8.748;2022-08-05T03:27:12;10.88;;;7.22;;
6626;SDS011;3349;49.830;8.748;2022-08-05T03:29:40;9.88;;;6.82;;
6626;SDS011;3349;49.830;8.748;2022-08-05T03:32:07;12.57;;;7.68;;
6626;SDS011;3349;49.830;8.748;2022-08-05T03:34:34;12.13;;;7.00;;
6626;SDS011;3349;49.830;8.748;2022-08-05T03:37:04;11.93;;;7.05;;
6626;SDS011;3349;49.830;8.748;2022-08-05T03:39:31;11.95;;;6.78;;
6626;SDS011;3349;49.830;8.748;2022-08-05T03:41:58;9.95;;;6.18;;
6626;SDS011;3349;49.830;8.748;2022-08-05T03:44:24;11.10;;;6.57;;
6626;SDS011;3349;49.830;8.748;2022-08-05T03:46:51;8.77;;;6.88;;
6626;SDS011;3349;49.830;8.748;2022-08-05T03:49:18;10.55;;;6.70;;
6626;SDS011;3349;49.830;8.748;2022-08-05T03:51:49;7.80;;;6.30;;
6626;SDS011;3349;49.830;8.748;2022-08-05T03:54:25;9.75;;;7.03;;
6626;SDS011;3349;49.830;8.748;2022-08-05T03:56:56;7.82;;;5.90;;
6626;SDS011;3349;49.830;8.748;2022-08-05T03:59:25;6.78;;;4.60;;
6626;SDS011;3349;49.830;8.748;2022-08-05T04:01:56;5.88;;;4.65;;
6626;SDS011;3349;49.830;8.748;2022-08-05T04:04:26;5.18;;;4.05;;
6626;SDS011;3349;49.830;8.748;2022-08-05T04:06:54;7.20;;;4.68;;
6626;SDS011;3349;49.830;8.748;2022-08-05T04:09:21;5.70;;;5.00;;
6626;SDS011;3349;49.830;8.748;2022-08-05T04:11:50;5.50;;;4.53;;
6626;SDS011;3349;49.830;8.748;2022-08-05T04:14:17;5.90;;;4.50;;
6626;SDS011;3349;49.830;8.748;2022-08-05T04:16:44;6.25;;;4.53;;
6626;SDS011;3349;49.830;8.748;2022-08-05T04:19:11;5.95;;;4.18;;
6626;SDS011;3349;49.830;8.748;2022-08-05T04:21:38;7.15;;;5.10;;
6626;SDS011;3349;49.830;8.748;2022-08-05T04:24:05;5.63;;;4.30;;
6626;SDS011;3349;49.830;8.748;2022-08-05T04:26:33;5.65;;;4.88;;
6626;SDS011;3349;49.830;8.748;2022-08-05T04:29:00;5.47;;;4.70;;
6626;SDS011;3349;49.830;8.748;2022-08-05T04:31:27;6.57;;;5.00;;
6626;SDS011;3349;49.830;8.748;2022-08-05T04:33:54;6.95;;;5.28;;
6626;SDS011;3349;49.830;8.748;2022-08-05T04:36:20;10.50;;;5.43;;
6626;SDS011;3349;49.830;8.748;2022-08-05T04:38:47;9.30;;;5.22;;
6626;SDS011;3349;49.830;8.748;2022-08-05T04:41:16;7.20;;;5.38;;
6626;SDS011;3349;49.830;8.748;2022-08-05T04:43:44;7.95;;;5.40;;
6626;SDS011;3349;49.830;8.748;2022-08-05T04:46:11;8.88;;;5.97;;
6626;SDS011;3349;49.830;8.748;2022-08-05T04:48:38;5.82;;;5.07;;
6626;SDS011;3349;49.830;8.748;2022-08-05T04:51:05;7.35;;;5.20;;
6626;SDS011;3349;49.830;8.748;2022-08-05T04:53:33;7.47;;;5.90;;
6626;SDS011;3349;49.830;8.748;2022-08-05T04:56:00;7.75;;;5.38;;
6626;SDS011;3349;49.830;8.748;2022-08-05T04:58:27;6.65;;;5.63;;
6626;SDS011;3349;49.830;8.748;2022-08-05T05:00:55;10.27;;;6.15;;
6626;SDS011;3349;49.830;8.748;2022-08-05T05:03:22;8.43;;;6.07;;
6626;SDS011;3349;49.830;8.748;2022-08-05T05:05:49;8.57;;;6.03;;
6626;SDS011;3349;49.830;8.748;2022-08-05T05:08:16;8.05;;;6.22;;
6626;SDS011;3349;49.830;8.748;2022-08-05T05:10:43;7.05;;;6.05;;
6626;SDS011;3349;49.830;8.748;2022-08-05T05:13:11;7.45;;;5.80;;
6626;SDS011;3349;49.830;8.748;2022-08-05T05:15:40;8.57;;;6.40;;
6626;SDS011;3349;49.830;8.748;2022-08-05T05:18:08;7.32;;;6.15;;
6626;SDS011;3349;49.830;8.748;2022-08-05T05:20:37;15.25;;;7.22;;
6626;SDS011;3349;49.830;8.748;2022-08-05T05:23:04;9.10;;;7.03;;
6626;SDS011;3349;49.830;8.748;2022-08-05T05:25:31;10.43;;;6.75;;
6626;SDS011;3349;49.830;8.748;2022-08-05T05:27:58;10.45;;;6.47;;
6626;SDS011;3349;49.830;8.748;2022-08-05T05:30:24;10.40;;;6.72;;
6626;SDS011;3349;49.830;8.748;2022-08-05T05:32:51;9.10;;;6.80;;
6626;SDS011;3349;49.830;8.748;2022-08-05T05:35:20;8.90;;;6.28;;
6626;SDS011;3349;49.830;8.748;2022-08-05T05:37:47;7.72;;;6.65;;
6626;SDS011;3349;49.830;8.748;2022-08-05T05:40:15;8.55;;;6.50;;
6626;SDS011;3349;49.830;8.748;2022-08-05T05:42:44;7.07;;;5.90;;
6626;SDS011;3349;49.830;8.748;2022-08-05T05:45:11;7.55;;;6.78;;
6626;SDS011;3349;49.830;8.748;2022-08-05T05:47:37;8.02;;;6.18;;
6626;SDS011;3349;49.830;8.748;2022-08-05T05:50:05;7.78;;;5.68;;
6626;SDS011;3349;49.830;8.748;2022-08-05T05:52:34;7.47;;;6.70;;
6626;SDS011;3349;49.830;8.748;2022-08-05T05:55:02;8.63;;;6.35;;
6626;SDS011;3349;49.830;8.748;2022-08-05T05:57:32;8.90;;;5.93;;
6626;SDS011;3349;49.830;8.748;2022-08-05T05:59:59;9.50;;;6.32;;
6626;SDS011;3349;49.830;8.748;2022-08-05T06:02:26;5.95;;;5.35;;
6626;SDS011;3349;49.830;8.748;2022-08-05T06:04:53;6.20;;;5.60;;
6626;SDS011;3349;49.830;8.748;2022-08-05T06:07:20;7.75;;;5.90;;
6626;SDS011;3349;49.830;8.748;2022-08-05T06:09:48;6.63;;;5.40;;
6626;SDS011;3349;49.830;8.748;2022-08-05T06:12:15;8.35;;;5.97;;
6626;SDS011;3349;49.830;8.748;2022-08-05T06:14:41;7.65;;;5.32;;
6626;SDS011;3349;49.830;8.748;2022-08-05T06:17:09;6.10;;;5.00;;
6626;SDS011;3349;49.830;8.748;2022-08-05T06:19:36;8.05;;;5.35;;
6626;SDS011;3349;49.830;8.748;2022-08-05T06:22:02;5.97;;;4.78;;
6626;SDS011;3349;49.830;8.748;2022-08-05T06:24:29;8.15;;;5.28;;
6626;SDS011;3349;49.830;8.748;2022-08-05T06:26:57;8.10;;;5.10;;
6626;SDS011;3349;49.830;8.748;2022-08-05T06:29:25;6.95;;;5.57;;
6626;SDS011;3349;49.830;8.748;2022-08-05T06:31:52;7.53;;;4.97;;
6626;SDS011;3349;49.830;8.748;2022-08-05T06:34:19;7.22;;;5.20;;
6626;SDS011;3349;49.830;8.748;2022-08-05T06:36:45;6.28;;;4.43;;
6626;SDS011;3349;49.830;8.748;2022-08-05T06:39:12;7.15;;;4.45;;
6626;SDS011;3349;49.830;8.748;2022-08-05T06:41:39;5.32;;;4.82;;
6626;SDS011;3349;49.830;8.748;2022-08-05T06:44:07;7.05;;;4.40;;
6626;SDS011;3349;49.830;8.748;2022-08-05T06:46:33;5.30;;;4.80;;
6626;SDS011;3349;49.830;8.748;2022-08-05T06:49:01;6.80;;;4.90;;
6626;SDS011;3349;49.830;8.748;2022-08-05T06:51:27;6.72;;;4.20;;
6626;SDS011;3349;49.830;8.748;2022-08-05T06:53:55;7.00;;;4.22;;
6626;SDS011;3349;49.830;8.748;2022-08-05T06:56:22;5.60;;;3.95;;
6626;SDS011;3349;49.830;8.748;2022-08-05T06:58:49;4.82;;;4.40;;
6626;SDS011;3349;49.830;8.748;2022-08-05T07:01:17;4.22;;;3.63;;
6626;SDS011;3349;49.830;8.748;2022-08-05T07:03:44;4.70;;;4.03;;
6626;SDS011;3349;49.830;8.748;2022-08-05T07:06:11;3.75;;;3.38;;
6626;SDS011;3349;49.830;8.748;2022-08-05T07:08:37;4.85;;;3.67;;
6626;SDS011;3349;49.830;8.748;2022-08-05T07:11:04;4.93;;;4.03;;
6626;SDS011;3349;49.830;8.748;2022-08-05T07:13:32;4.57;;;4.18;;
6626;SDS011;3349;49.830;8.748;2022-08-05T07:16:18;6.00;;;3.88;;
6626;SDS011;3349;49.830;8.748;2022-08-05T07:19:02;6.00;;;3.90;;
6626;SDS011;3349;49.830;8.748;2022-08-05T07:21:29;5.30;;;3.85;;
6626;SDS011;3349;49.830;8.748;2022-08-05T07:23:56;10.60;;;4.82;;
6626;SDS011;3349;49.830;8.748;2022-08-05T07:26:23;5.03;;;4.30;;
6626;SDS011;3349;49.830;8.748;2022-08-05T07:28:50;4.43;;;3.92;;
6626;SDS011;3349;49.830;8.748;2022-08-05T07:31:16;3.88;;;3.33;;
6626;SDS011;3349;49.830;8.748;2022-08-05T07:33:44;4.30;;;3.90;;
6626;SDS011;3349;49.830;8.748;2022-08-05T07:36:11;4.47;;;3.47;;
6626;SDS011;3349;49.830;8.748;2022-08-05T07:38:38;4.97;;;3.70;;
6626;SDS011;3349;49.830;8.748;2022-08-05T07:41:06;5.13;;;3.85;;
6626;SDS011;3349;49.830;8.748;2022-08-05T07:43:34;4.85;;;3.80;;
6626;SDS011;3349;49.830;8.748;2022-08-05T07:46:01;5.28;;;3.97;;
6626;SDS011;3349;49.830;8.748;2022-08-05T07:48:30;6.15;;;4.75;;
6626;SDS011;3349;49.830;8.748;2022-08-05T07:50:56;6.18;;;4.55;;
6626;SDS011;3349;49.830;8.748;2022-08-05T07:53:23;4.28;;;3.88;;
6626;SDS011;3349;49.830;8.748;2022-08-05T07:55:50;7.10;;;4.63;;
6626;SDS011;3349;49.830;8.748;2022-08-05T07:58:17;6.43;;;4.05;;
6626;SDS011;3349;49.830;8.748;2022-08-05T08:00:44;5.28;;;4.18;;
6626;SDS011;3349;49.830;8.748;2022-08-05T08:03:12;7.55;;;4.53;;
6626;SDS011;3349;49.830;8.748;2022-08-05T08:05:40;4.50;;;4.05;;
6626;SDS011;3349;49.830;8.748;2022-08-05T08:08:08;5.28;;;3.75;;
6626;SDS011;3349;49.830;8.748;2022-08-05T08:10:35;4.55;;;3.75;;
6626;SDS011;3349;49.830;8.748;2022-08-05T08:13:02;5.40;;;3.60;;
6626;SDS011;3349;49.830;8.748;2022-08-05T08:15:29;3.40;;;3.10;;
6626;SDS011;3349;49.830;8.748;2022-08-05T08:17:57;6.20;;;4.10;;
6626;SDS011;3349;49.830;8.748;2022-08-05T08:20:24;7.88;;;4.40;;
6626;SDS011;3349;49.830;8.748;2022-08-05T08:22:53;5.70;;;4.70;;
6626;SDS011;3349;49.830;8.748;2022-08-05T08:25:20;6.45;;;4.53;;
6626;SDS011;3349;49.830;8.748;2022-08-05T08:27:47;5.50;;;4.75;;
6626;SDS011;3349;49.830;8.748;2022-08-05T08:30:14;4.70;;;4.30;;
6626;SDS011;3349;49.830;8.748;2022-08-05T08:32:41;4.40;;;4.00;;
6626;SDS011;3349;49.830;8.748;2022-08-05T08:35:08;4.43;;;4.00;;
6626;SDS011;3349;49.830;8.748;2022-08-05T08:37:35;9.20;;;4.65;;
6626;SDS011;3349;49.830;8.748;2022-08-05T08:40:04;4.95;;;3.88;;
6626;SDS011;3349;49.830;8.748;2022-08-05T08:42:31;4.75;;;4.10;;
6626;SDS011;3349;49.830;8.748;2022-08-05T08:44:58;5.90;;;4.00;;
6626;SDS011;3349;49.830;8.748;2022-08-05T08:47:26;4.95;;;3.63;;
6626;SDS011;3349;49.830;8.748;2022-08-05T08:49:54;3.95;;;3.58;;
6626;SDS011;3349;49.830;8.748;2022-08-05T08:52:24;5.65;;;3.30;;
6626;SDS011;3349;49.830;8.748;2022-08-05T08:54:52;5.70;;;3.30;;
6626;SDS011;3349;49.830;8.748;2022-08-05T08:57:22;5.88;;;3.45;;
6626;SDS011;3349;49.830;8.748;2022-08-05T08:59:49;4.05;;;3.65;;
6626;SDS011;3349;49.830;8.748;2022-08-05T09:02:17;4.20;;;3.40;;
6626;SDS011;3349;49.830;8.748;2022-08-05T09:04:46;3.83;;;3.28;;
6626;SDS011;3349;49.830;8.748;2022-08-05T09:07:13;4.68;;;3.40;;
6626;SDS011;3349;49.830;8.748;2022-08-05T09:09:40;7.53;;;3.70;;
6626;SDS011;3349;49.830;8.748;2022-08-05T09:12:08;3.75;;;3.45;;
6626;SDS011;3349;49.830;8.748;2022-08-05T09:14:36;3.40;;;3.10;;
6626;SDS011;3349;49.830;8.748;2022-08-05T09:17:04;3.65;;;3.35;;
6626;SDS011;3349;49.830;8.748;2022-08-05T09:19:33;4.47;;;3.67;;
6626;SDS011;3349;49.830;8.748;2022-08-05T09:22:00;5.85;;;3.90;;
6626;SDS011;3349;49.830;8.748;2022-08-05T09:24:26;4.28;;;3.53;;
6626;SDS011;3349;49.830;8.748;2022-08-05T09:26:54;4.47;;;3.35;;
6626;SDS011;3349;49.830;8.748;2022-08-05T09:29:35;4.80;;;3.30;;
6626;SDS011;3349;49.830;8.748;2022-08-05T09:32:07;3.63;;;3.33;;
6626;SDS011;3349;49.830;8.748;2022-08-05T09:34:47;3.88;;;3.38;;
6626;SDS011;3349;49.830;8.748;2022-08-05T09:37:16;5.32;;;3.70;;
6626;SDS011;3349;49.830;8.748;2022-08-05T09:39:43;3.88;;;3.47;;
6626;SDS011;3349;49.830;8.748;2022-08-05T09:42:11;5.63;;;3.47;;
6626;SDS011;3349;49.830;8.748;2022-08-05T09:44:41;4.00;;;3.47;;
6626;SDS011;3349;49.830;8.748;2022-08-05T09:47:10;3.20;;;3.00;;
6626;SDS011;3349;49.830;8.748;2022-08-05T09:49:39;3.83;;;3.25;;
6626;SDS011;3349;49.830;8.748;2022-08-05T09:52:20;4.45;;;3.67;;
6626;SDS011;3349;49.830;8.748;2022-08-05T09:54:56;3.63;;;3.28;;
6626;SDS011;3349;49.830;8.748;2022-08-05T09:57:31;5.43;;;3.88;;
6626;SDS011;3349;49.830;8.748;2022-08-05T10:00:03;3.75;;;3.33;;
6626;SDS011;3349;49.830;8.748;2022-08-05T10:02:34;4.00;;;3.60;;
6626;SDS011;3349;49.830;8.748;2022-08-05T10:05:03;3.95;;;3.50;;
6626;SDS011;3349;49.830;8.748;2022-08-05T10:07:42;4.30;;;3.78;;
6626;SDS011;3349;49.830;8.748;2022-08-05T10:10:13;5.03;;;3.75;;
6626;SDS011;3349;49.830;8.748;2022-08-05T10:12:42;3.83;;;3.45;;
6626;SDS011;3349;49.830;8.748;2022-08-05T10:15:15;4.43;;;4.03;;
6626;SDS011;3349;49.830;8.748;2022-08-05T10:20:34;3.90;;;3.60;;
6626;SDS011;3349;49.830;8.748;2022-08-05T10:23:02;5.97;;;3.83;;
6626;SDS011;3349;49.830;8.748;2022-08-05T10:25:29;4.53;;;3.67;;
6626;SDS011;3349;49.830;8.748;2022-08-05T10:27:56;4.00;;;3.60;;
6626;SDS011;3349;49.830;8.748;2022-08-05T10:30:25;4.38;;;3.97;;
6626;SDS011;3349;49.830;8.748;2022-08-05T10:32:53;4.78;;;3.92;;
6626;SDS011;3349;49.830;8.748;2022-08-05T10:35:22;4.07;;;3.67;;
6626;SDS011;3349;49.830;8.748;2022-08-05T10:37:49;4.32;;;3.92;;
6626;SDS011;3349;49.830;8.748;2022-08-05T10:40:21;4.53;;;3.70;;
6626;SDS011;3349;49.830;8.748;2022-08-05T10:42:57;4.10;;;3.72;;
6626;SDS011;3349;49.830;8.748;2022-08-05T10:45:29;4.28;;;3.88;;
6626;SDS011;3349;49.830;8.748;2022-08-05T10:47:56;4.40;;;4.00;;
6626;SDS011;3349;49.830;8.748;2022-08-05T10:50:23;5.25;;;3.78;;
6626;SDS011;3349;49.830;8.748;2022-08-05T10:52:50;4.13;;;3.72;;
6626;SDS011;3349;49.830;8.748;2022-08-05T10:55:21;4.03;;;3.70;;
6626;SDS011;3349;49.830;8.748;2022-08-05T11:00:35;4.50;;;3.90;;
6626;SDS011;3349;49.830;8.748;2022-08-05T11:03:09;4.10;;;3.80;;
6626;SDS011;3349;49.830;8.748;2022-08-05T11:05:38;4.40;;;4.00;;
6626;SDS011;3349;49.830;8.748;2022-08-05T11:08:06;4.03;;;3.63;;
6626;SDS011;3349;49.830;8.748;2022-08-05T11:10:34;3.92;;;3.63;;
6626;SDS011;3349;49.830;8.748;2022-08-05T11:13:02;5.82;;;5.32;;
6626;SDS011;3349;49.830;8.748;2022-08-05T11:15:30;4.60;;;4.03;;
6626;SDS011;3349;49.830;8.748;2022-08-05T11:18:22;4.00;;;3.70;;
6626;SDS011;3349;49.830;8.748;2022-08-05T11:20:51;3.90;;;3.60;;
6626;SDS011;3349;49.830;8.748;2022-08-05T11:23:28;4.10;;;3.70;;
6626;SDS011;3349;49.830;8.748;2022-08-05T11:26:03;4.20;;;3.47;;
6626;SDS011;3349;49.830;8.748;2022-08-05T11:28:38;3.83;;;3.53;;
6626;SDS011;3349;49.830;8.748;2022-08-05T11:31:18;3.78;;;3.45;;
6626;SDS011;3349;49.830;8.748;2022-08-05T11:33:53;4.03;;;3.63;;
6626;SDS011;3349;49.830;8.748;2022-08-05T11:42:13;4.00;;;3.60;;
6626;SDS011;3349;49.830;8.748;2022-08-05T11:44:41;3.97;;;3.30;;
6626;SDS011;3349;49.830;8.748;2022-08-05T11:47:08;3.83;;;3.53;;
6626;SDS011;3349;49.830;8.748;2022-08-05T11:49:37;4.70;;;3.90;;
6626;SDS011;3349;49.830;8.748;2022-08-05T11:52:04;3.38;;;3.10;;
6626;SDS011;3349;49.830;8.748;2022-08-05T11:54:31;3.85;;;3.45;;
6626;SDS011;3349;49.830;8.748;2022-08-05T11:57:01;4.15;;;3.75;;
6626;SDS011;3349;49.830;8.748;2022-08-05T11:59:29;3.97;;;3.65;;
6626;SDS011;3349;49.830;8.748;2022-08-05T12:01:58;4.15;;;3.80;;
6626;SDS011;3349;49.830;8.748;2022-08-05T12:04:27;4.05;;;3.75;;
6626;SDS011;3349;49.830;8.748;2022-08-05T12:07:03;4.38;;;3.88;;
6626;SDS011;3349;49.830;8.748;2022-08-05T12:09:35;4.53;;;3.78;;
6626;SDS011;3349;49.830;8.748;2022-08-05T12:12:02;4.63;;;3.78;;
6626;SDS011;3349;49.830;8.748;2022-08-05T12:14:34;3.80;;;3.50;;
6626;SDS011;3349;49.830;8.748;2022-08-05T12:17:05;4.95;;;3.70;;
6626;SDS011;3349;49.830;8.748;2022-08-05T12:19:39;3.90;;;3.60;;
6626;SDS011;3349;49.830;8.748;2022-08-05T12:22:07;4.35;;;3.95;;
6626;SDS011;3349;49.830;8.748;2022-08-05T12:24:34;4.65;;;4.07;;
6626;SDS011;3349;49.830;8.748;2022-08-05T12:27:07;4.32;;;3.90;;
6626;SDS011;3349;49.830;8.748;2022-08-05T12:29:33;4.10;;;3.80;;
6626;SDS011;3349;49.830;8.748;2022-08-05T12:32:01;4.60;;;4.20;;
6626;SDS011;3349;49.830;8.748;2022-08-05T12:34:31;3.78;;;3.47;;
6626;SDS011;3349;49.830;8.748;2022-08-05T12:37:01;4.85;;;3.95;;
6626;SDS011;3349;49.830;8.748;2022-08-05T12:39:36;5.13;;;4.10;;
6626;SDS011;3349;49.830;8.748;2022-08-05T12:42:07;4.40;;;4.00;;
6626;SDS011;3349;49.830;8.748;2022-08-05T12:44:36;3.92;;;3.63;;
6626;SDS011;3349;49.830;8.748;2022-08-05T12:47:03;4.03;;;3.70;;
6626;SDS011;3349;49.830;8.748;2022-08-05T12:49:41;4.50;;;4.10;;
6626;SDS011;3349;49.830;8.748;2022-08-05T12:52:13;4.32;;;3.90;;
6626;SDS011;3349;49.830;8.748;2022-08-05T12:54:42;4.10;;;3.70;;
6626;SDS011;3349;49.830;8.748;2022-08-05T12:57:10;4.35;;;3.97;;
6626;SDS011;3349;49.830;8.748;2022-08-05T12:59:45;4.20;;;3.90;;
6626;SDS011;3349;49.830;8.748;2022-08-05T13:02:18;4.90;;;4.50;;
6626;SDS011;3349;49.830;8.748;2022-08-05T13:04:46;5.88;;;4.68;;
6626;SDS011;3349;49.830;8.748;2022-08-05T13:07:15;5.50;;;4.72;;
6626;SDS011;3349;49.830;8.748;2022-08-05T13:09:48;4.65;;;4.25;;
6626;SDS011;3349;49.830;8.748;2022-08-05T13:12:17;5.45;;;4.95;;
6626;SDS011;3349;49.830;8.748;2022-08-05T13:14:45;5.00;;;4.60;;
6626;SDS011;3349;49.830;8.748;2022-08-05T13:17:15;5.20;;;4.70;;
6626;SDS011;3349;49.830;8.748;2022-08-05T13:19:56;4.95;;;4.55;;
6626;SDS011;3349;49.830;8.748;2022-08-05T13:22:23;5.07;;;4.13;;
6626;SDS011;3349;49.830;8.748;2022-08-05T13:24:52;5.30;;;4.72;;
6626;SDS011;3349;49.830;8.748;2022-08-05T13:27:23;4.88;;;4.47;;
6626;SDS011;3349;49.830;8.748;2022-08-05T13:29:51;5.68;;;5.18;;
6626;SDS011;3349;49.830;8.748;2022-08-05T13:32:17;5.38;;;4.88;;
6626;SDS011;3349;49.830;8.748;2022-08-05T13:34:45;5.32;;;4.85;;
6626;SDS011;3349;49.830;8.748;2022-08-05T13:37:12;5.72;;;4.60;;
6626;SDS011;3349;49.830;8.748;2022-08-05T13:39:39;5.93;;;5.40;;
6626;SDS011;3349;49.830;8.748;2022-08-05T13:42:08;5.60;;;5.10;;
6626;SDS011;3349;49.830;8.748;2022-08-05T13:44:35;5.78;;;4.70;;
6626;SDS011;3349;49.830;8.748;2022-08-05T13:47:02;5.88;;;4.95;;
6626;SDS011;3349;49.830;8.748;2022-08-05T13:49:29;6.18;;;5.10;;
6626;SDS011;3349;49.830;8.748;2022-08-05T13:51:56;5.03;;;4.63;;
6626;SDS011;3349;49.830;8.748;2022-08-05T13:54:25;5.65;;;5.05;;
6626;SDS011;3349;49.830;8.748;2022-08-05T13:56:51;5.60;;;5.10;;
6626;SDS011;3349;49.830;8.748;2022-08-05T13:59:20;5.32;;;4.85;;
6626;SDS011;3349;49.830;8.748;2022-08-05T14:01:47;5.75;;;5.25;;
6626;SDS011;3349;49.830;8.748;2022-08-05T14:04:14;5.38;;;4.88;;
6626;SDS011;3349;49.830;8.748;2022-08-05T14:06:58;5.55;;;5.05;;
6626;SDS011;3349;49.830;8.748;2022-08-05T14:09:25;5.80;;;5.30;;
6626;SDS011;3349;49.830;8.748;2022-08-05T14:11:52;5.63;;;5.18;;
6626;SDS011;3349;49.830;8.748;2022-08-05T14:14:20;5.50;;;5.10;;
6626;SDS011;3349;49.830;8.748;2022-08-05T14:16:47;5.50;;;5.05;;
6626;SDS011;3349;49.830;8.748;2022-08-05T14:19:15;5.97;;;5.43;;
6626;SDS011;3349;49.830;8.748;2022-08-05T14:21:41;5.43;;;4.93;;
6626;SDS011;3349;49.830;8.748;2022-08-05T14:24:08;5.88;;;5.38;;
6626;SDS011;3349;49.830;8.748;2022-08-05T14:26:36;5.40;;;4.90;;
6626;SDS011;3349;49.830;8.748;2022-08-05T14:29:03;6.00;;;5.50;;
6626;SDS011;3349;49.830;8.748;2022-08-05T14:31:31;5.63;;;5.13;;
6626;SDS011;3349;49.830;8.748;2022-08-05T14:33:58;6.35;;;5.35;;
6626;SDS011;3349;49.830;8.748;2022-08-05T14:36:25;6.50;;;5.50;;
6626;SDS011;3349;49.830;8.748;2022-08-05T14:38:52;6.20;;;5.70;;
6626;SDS011;3349;49.830;8.748;2022-08-05T14:41:19;6.93;;;5.45;;
6626;SDS011;3349;49.830;8.748;2022-08-05T14:43:46;6.30;;;5.70;;
6626;SDS011;3349;49.830;8.748;2022-08-05T14:46:14;7.18;;;6.20;;
6626;SDS011;3349;49.830;8.748;2022-08-05T14:48:42;7.10;;;6.40;;
6626;SDS011;3349;49.830;8.748;2022-08-05T14:51:09;8.18;;;7.35;;
6626;SDS011;3349;49.830;8.748;2022-08-05T14:53:36;8.75;;;7.63;;
6626;SDS011;3349;49.830;8.748;2022-08-05T14:56:03;8.68;;;7.80;;
6626;SDS011;3349;49.830;8.748;2022-08-05T14:58:30;8.68;;;7.97;;
6626;SDS011;3349;49.830;8.748;2022-08-05T15:00:56;8.73;;;7.93;;
6626;SDS011;3349;49.830;8.748;2022-08-05T15:03:23;8.30;;;7.60;;
6626;SDS011;3349;49.830;8.748;2022-08-05T15:05:51;9.02;;;8.20;;
6626;SDS011;3349;49.830;8.748;2022-08-05T15:08:18;9.30;;;8.50;;
6626;SDS011;3349;49.830;8.748;2022-08-05T15:10:45;10.88;;;9.50;;
6626;SDS011;3349;49.830;8.748;2022-08-05T15:13:12;11.60;;;9.65;;
6626;SDS011;3349;49.830;8.748;2022-08-05T15:15:38;12.70;;;11.50;;
6626;SDS011;3349;49.830;8.748;2022-08-05T15:18:05;11.32;;;10.23;;
6626;SDS011;3349;49.830;8.748;2022-08-05T15:20:32;12.48;;;11.38;;
6626;SDS011;3349;49.830;8.748;2022-08-05T15:23:03;13.07;;;11.88;;
6626;SDS011;3349;49.830;8.748;2022-08-05T15:25:30;14.05;;;12.65;;
6626;SDS011;3349;49.830;8.748;2022-08-05T15:27:58;15.48;;;13.88;;
6626;SDS011;3349;49.830;8.748;2022-08-05T15:30:24;16.20;;;14.60;;
6626;SDS011;3349;49.830;8.748;2022-08-05T15:32:52;16.52;;;14.82;;
6626;SDS011;3349;49.830;8.748;2022-08-05T15:35:20;15.73;;;14.13;;
6626;SDS011;3349;49.830;8.748;2022-08-05T15:37:47;16.20;;;14.80;;
6626;SDS011;3349;49.830;8.748;2022-08-05T15:40:15;15.98;;;14.48;;